sensor_id;sensor_type;location;lat;lon;timestamp;P1;durP1;ratioP1;P2;durP2;ratioP2
14094;SDS011;18096;48.142;16.290;2023-06-22T00:00:54;13.18;;;4.07;;
14094;SDS011;18096;48.142;16.290;2023-06-22T00:03:20;5.90;;;3.53;;
14094;SDS011;18096;48.142;16.290;2023-06-22T00:05:47;14.13;;;4.30;;
14094;SDS011;18096;48.142;16.290;2023-06-22T00:08:13;7.95;;;3.80;;
14094;SDS011;18096;48.142;16.290;2023-06-22T00:10:39;9.60;;;3.83;;
14094;SDS011;18096;48.142;16.290;2023-06-22T00:13:06;10.93;;;3.87;;
14094;SDS011;18096;48.142;16.290;2023-06-22T00:15:33;9.30;;;3.50;;
14094;SDS011;18096;48.142;16.290;2023-06-22T00:17:58;7.70;;;3.30;;
14094;SDS011;18096;48.142;16.290;2023-06-22T00:20:24;14.23;;;3.90;;
14094;SDS011;18096;48.142;16.290;2023-06-22T00:22:54;9.15;;;3.38;;
14094;SDS011;18096;48.142;16.290;2023-06-22T00:25:20;14.07;;;3.38;;
14094;SDS011;18096;48.142;16.290;2023-06-22T00:27:46;6.45;;;3.13;;
14094;SDS011;18096;48.142;16.290;2023-06-22T00:30:12;12.30;;;4.07;;
14094;SDS011;18096;48.142;16.290;2023-06-22T00:32:38;9.32;;;3.13;;
14094;SDS011;18096;48.142;16.290;2023-06-22T00:35:04;11.10;;;3.53;;
14094;SDS011;18096;48.142;16.290;2023-06-22T00:37:30;7.88;;;3.92;;
14094;SDS011;18096;48.142;16.290;2023-06-22T00:39:56;8.57;;;3.10;;
14094;SDS011;18096;48.142;16.290;2023-06-22T00:42:22;9.77;;;3.40;;
14094;SDS011;18096;48.142;16.290;2023-06-22T00:44:47;13.40;;;3.50;;
14094;SDS011;18096;48.142;16.290;2023-06-22T00:47:13;17.43;;;5.17;;
14094;SDS011;18096;48.142;16.290;2023-06-22T00:49:42;14.80;;;3.90;;
14094;SDS011;18096;48.142;16.290;2023-06-22T00:52:08;10.43;;;3.40;;
14094;SDS011;18096;48.142;16.290;2023-06-22T00:54:42;9.98;;;2.85;;
14094;SDS011;18096;48.142;16.290;2023-06-22T00:57:11;5.55;;;3.30;;
14094;SDS011;18096;48.142;16.290;2023-06-22T00:59:40;16.00;;;3.70;;
14094;SDS011;18096;48.142;16.290;2023-06-22T01:02:07;7.28;;;2.80;;
14094;SDS011;18096;48.142;16.290;2023-06-22T01:04:36;4.85;;;3.15;;
14094;SDS011;18096;48.142;16.290;2023-06-22T01:10:16;7.35;;;3.25;;
14094;SDS011;18096;48.142;16.290;2023-06-22T01:12:55;6.03;;;2.70;;
14094;SDS011;18096;48.142;16.290;2023-06-22T01:18:16;10.50;;;3.40;;
14094;SDS011;18096;48.142;16.290;2023-06-22T01:20:43;9.37;;;3.00;;
14094;SDS011;18096;48.142;16.290;2023-06-22T01:29:03;3.35;;;2.53;;
14094;SDS011;18096;48.142;16.290;2023-06-22T01:31:30;7.72;;;2.83;;
14094;SDS011;18096;48.142;16.290;2023-06-22T01:34:01;7.75;;;3.80;;
14094;SDS011;18096;48.142;16.290;2023-06-22T01:36:29;6.87;;;3.10;;
14094;SDS011;18096;48.142;16.290;2023-06-22T01:38:57;7.18;;;3.38;;
14094;SDS011;18096;48.142;16.290;2023-06-22T01:41:24;3.50;;;2.70;;
14094;SDS011;18096;48.142;16.290;2023-06-22T01:43:51;12.20;;;3.47;;
14094;SDS011;18096;48.142;16.290;2023-06-22T01:46:19;8.30;;;2.80;;
14094;SDS011;18096;48.142;16.290;2023-06-22T01:48:46;8.35;;;3.38;;
14094;SDS011;18096;48.142;16.290;2023-06-22T01:51:12;10.20;;;3.08;;
14094;SDS011;18096;48.142;16.290;2023-06-22T01:53:38;6.00;;;2.75;;
14094;SDS011;18096;48.142;16.290;2023-06-22T01:56:04;8.30;;;3.23;;
14094;SDS011;18096;48.142;16.290;2023-06-22T01:58:30;5.07;;;3.03;;
14094;SDS011;18096;48.142;16.290;2023-06-22T02:00:58;8.40;;;2.97;;
14094;SDS011;18096;48.142;16.290;2023-06-22T02:03:42;9.23;;;2.80;;
14094;SDS011;18096;48.142;16.290;2023-06-22T02:06:16;6.70;;;2.80;;
14094;SDS011;18096;48.142;16.290;2023-06-22T02:08:47;5.65;;;2.30;;
14094;SDS011;18096;48.142;16.290;2023-06-22T02:11:20;5.70;;;2.60;;
14094;SDS011;18096;48.142;16.290;2023-06-22T02:13:47;7.95;;;2.70;;
14094;SDS011;18096;48.142;16.290;2023-06-22T02:16:14;9.02;;;2.90;;
14094;SDS011;18096;48.142;16.290;2023-06-22T02:18:48;7.88;;;3.10;;
14094;SDS011;18096;48.142;16.290;2023-06-22T02:21:17;9.52;;;3.42;;
14094;SDS011;18096;48.142;16.290;2023-06-22T02:23:46;5.50;;;2.88;;
14094;SDS011;18096;48.142;16.290;2023-06-22T02:26:12;5.70;;;3.15;;
14094;SDS011;18096;48.142;16.290;2023-06-22T02:28:38;5.43;;;3.13;;
14094;SDS011;18096;48.142;16.290;2023-06-22T02:31:04;5.72;;;3.10;;
14094;SDS011;18096;48.142;16.290;2023-06-22T02:33:30;7.80;;;3.60;;
14094;SDS011;18096;48.142;16.290;2023-06-22T02:35:55;5.13;;;3.20;;
14094;SDS011;18096;48.142;16.290;2023-06-22T02:38:21;7.87;;;2.90;;
14094;SDS011;18096;48.142;16.290;2023-06-22T02:40:49;8.23;;;3.95;;
14094;SDS011;18096;48.142;16.290;2023-06-22T02:43:15;6.50;;;3.10;;
14094;SDS011;18096;48.142;16.290;2023-06-22T02:45:41;8.30;;;3.28;;
14094;SDS011;18096;48.142;16.290;2023-06-22T02:48:07;4.77;;;2.93;;
14094;SDS011;18096;48.142;16.290;2023-06-22T02:50:33;11.90;;;2.93;;
14094;SDS011;18096;48.142;16.290;2023-06-22T02:52:58;8.50;;;3.20;;
14094;SDS011;18096;48.142;16.290;2023-06-22T02:55:24;5.67;;;2.90;;
14094;SDS011;18096;48.142;16.290;2023-06-22T02:57:49;8.70;;;2.83;;
14094;SDS011;18096;48.142;16.290;2023-06-22T03:00:17;4.90;;;2.60;;
14094;SDS011;18096;48.142;16.290;2023-06-22T03:02:45;12.05;;;2.90;;
14094;SDS011;18096;48.142;16.290;2023-06-22T03:05:11;9.35;;;3.40;;
14094;SDS011;18096;48.142;16.290;2023-06-22T03:07:42;7.53;;;3.80;;
14094;SDS011;18096;48.142;16.290;2023-06-22T03:10:11;9.07;;;3.10;;
14094;SDS011;18096;48.142;16.290;2023-06-22T03:12:38;6.72;;;3.38;;
14094;SDS011;18096;48.142;16.290;2023-06-22T03:15:11;6.50;;;2.90;;
14094;SDS011;18096;48.142;16.290;2023-06-22T03:17:37;8.02;;;3.70;;
14094;SDS011;18096;48.142;16.290;2023-06-22T03:20:05;6.30;;;3.40;;
14094;SDS011;18096;48.142;16.290;2023-06-22T03:22:36;4.28;;;3.17;;
14094;SDS011;18096;48.142;16.290;2023-06-22T03:25:01;7.00;;;3.28;;
14094;SDS011;18096;48.142;16.290;2023-06-22T03:27:27;8.93;;;4.20;;
14094;SDS011;18096;48.142;16.290;2023-06-22T03:29:53;7.90;;;3.55;;
14094;SDS011;18096;48.142;16.290;2023-06-22T03:32:18;6.53;;;3.30;;
14094;SDS011;18096;48.142;16.290;2023-06-22T03:34:44;6.60;;;3.00;;
14094;SDS011;18096;48.142;16.290;2023-06-22T03:37:13;5.40;;;3.47;;
14094;SDS011;18096;48.142;16.290;2023-06-22T03:39:39;5.80;;;3.43;;
14094;SDS011;18096;48.142;16.290;2023-06-22T03:42:06;10.05;;;3.88;;
14094;SDS011;18096;48.142;16.290;2023-06-22T03:44:31;7.40;;;3.47;;
14094;SDS011;18096;48.142;16.290;2023-06-22T03:46:57;10.40;;;3.72;;
14094;SDS011;18096;48.142;16.290;2023-06-22T03:49:23;5.10;;;3.20;;
14094;SDS011;18096;48.142;16.290;2023-06-22T03:51:48;6.60;;;3.07;;
14094;SDS011;18096;48.142;16.290;2023-06-22T03:54:14;6.80;;;3.67;;
14094;SDS011;18096;48.142;16.290;2023-06-22T03:56:39;9.03;;;3.80;;
14094;SDS011;18096;48.142;16.290;2023-06-22T03:59:05;10.20;;;3.75;;
14094;SDS011;18096;48.142;16.290;2023-06-22T04:01:31;8.40;;;3.58;;
14094;SDS011;18096;48.142;16.290;2023-06-22T04:03:56;10.20;;;4.60;;
14094;SDS011;18096;48.142;16.290;2023-06-22T04:06:22;9.38;;;3.60;;
14094;SDS011;18096;48.142;16.290;2023-06-22T04:08:47;6.10;;;3.80;;
14094;SDS011;18096;48.142;16.290;2023-06-22T04:11:16;5.45;;;3.40;;
14094;SDS011;18096;48.142;16.290;2023-06-22T04:13:42;9.70;;;3.53;;
14094;SDS011;18096;48.142;16.290;2023-06-22T04:16:08;7.95;;;4.00;;
14094;SDS011;18096;48.142;16.290;2023-06-22T04:18:34;5.90;;;3.70;;
14094;SDS011;18096;48.142;16.290;2023-06-22T04:20:59;8.43;;;4.30;;
14094;SDS011;18096;48.142;16.290;2023-06-22T04:23:25;6.07;;;3.42;;
14094;SDS011;18096;48.142;16.290;2023-06-22T04:25:50;11.93;;;4.47;;
14094;SDS011;18096;48.142;16.290;2023-06-22T04:28:16;5.88;;;3.10;;
14094;SDS011;18096;48.142;16.290;2023-06-22T04:30:42;7.17;;;3.73;;
14094;SDS011;18096;48.142;16.290;2023-06-22T04:33:14;7.45;;;4.43;;
14094;SDS011;18096;48.142;16.290;2023-06-22T04:35:41;15.88;;;3.85;;
14094;SDS011;18096;48.142;16.290;2023-06-22T04:38:07;10.17;;;4.23;;
14094;SDS011;18096;48.142;16.290;2023-06-22T04:40:33;10.50;;;3.47;;
14094;SDS011;18096;48.142;16.290;2023-06-22T04:42:59;6.57;;;3.30;;
14094;SDS011;18096;48.142;16.290;2023-06-22T04:45:27;12.82;;;4.13;;
14094;SDS011;18096;48.142;16.290;2023-06-22T04:47:56;8.05;;;3.83;;
14094;SDS011;18096;48.142;16.290;2023-06-22T04:50:22;10.05;;;3.97;;
14094;SDS011;18096;48.142;16.290;2023-06-22T04:52:48;11.87;;;4.43;;
14094;SDS011;18096;48.142;16.290;2023-06-22T04:55:14;7.18;;;3.53;;
14094;SDS011;18096;48.142;16.290;2023-06-22T04:57:45;8.77;;;3.50;;
14094;SDS011;18096;48.142;16.290;2023-06-22T05:00:14;7.10;;;3.60;;
14094;SDS011;18096;48.142;16.290;2023-06-22T05:02:42;8.10;;;3.70;;
14094;SDS011;18096;48.142;16.290;2023-06-22T05:05:09;5.57;;;3.75;;
14094;SDS011;18096;48.142;16.290;2023-06-22T05:07:38;9.80;;;3.67;;
14094;SDS011;18096;48.142;16.290;2023-06-22T05:10:08;7.07;;;3.42;;
14094;SDS011;18096;48.142;16.290;2023-06-22T05:12:35;4.70;;;3.07;;
14094;SDS011;18096;48.142;16.290;2023-06-22T05:15:01;6.38;;;4.10;;
14094;SDS011;18096;48.142;16.290;2023-06-22T05:17:27;7.03;;;3.97;;
14094;SDS011;18096;48.142;16.290;2023-06-22T05:19:53;6.70;;;3.40;;
14094;SDS011;18096;48.142;16.290;2023-06-22T05:22:18;8.10;;;3.92;;
14094;SDS011;18096;48.142;16.290;2023-06-22T05:24:44;18.10;;;4.40;;
14094;SDS011;18096;48.142;16.290;2023-06-22T05:27:10;6.85;;;4.15;;
14094;SDS011;18096;48.142;16.290;2023-06-22T05:29:36;13.67;;;4.37;;
14094;SDS011;18096;48.142;16.290;2023-06-22T05:32:02;10.00;;;3.87;;
14094;SDS011;18096;48.142;16.290;2023-06-22T05:34:28;8.73;;;4.40;;
14094;SDS011;18096;48.142;16.290;2023-06-22T05:36:54;7.00;;;3.70;;
14094;SDS011;18096;48.142;16.290;2023-06-22T05:39:19;4.63;;;3.88;;
14094;SDS011;18096;48.142;16.290;2023-06-22T05:41:45;6.73;;;4.00;;
14094;SDS011;18096;48.142;16.290;2023-06-22T05:44:11;7.05;;;4.45;;
14094;SDS011;18096;48.142;16.290;2023-06-22T05:46:40;15.40;;;4.20;;
14094;SDS011;18096;48.142;16.290;2023-06-22T05:49:09;9.70;;;3.92;;
14094;SDS011;18096;48.142;16.290;2023-06-22T05:51:36;9.10;;;4.30;;
14094;SDS011;18096;48.142;16.290;2023-06-22T05:54:01;9.02;;;4.32;;
14094;SDS011;18096;48.142;16.290;2023-06-22T05:56:27;14.68;;;4.70;;
14094;SDS011;18096;48.142;16.290;2023-06-22T05:58:53;11.90;;;4.30;;
14094;SDS011;18096;48.142;16.290;2023-06-22T06:01:18;11.67;;;4.47;;
14094;SDS011;18096;48.142;16.290;2023-06-22T06:03:44;9.20;;;4.10;;
14094;SDS011;18096;48.142;16.290;2023-06-22T06:06:09;10.80;;;3.90;;
14094;SDS011;18096;48.142;16.290;2023-06-22T06:08:36;6.30;;;3.20;;
14094;SDS011;18096;48.142;16.290;2023-06-22T06:11:02;10.50;;;3.50;;
14094;SDS011;18096;48.142;16.290;2023-06-22T06:13:28;9.68;;;3.53;;
14094;SDS011;18096;48.142;16.290;2023-06-22T06:15:53;7.63;;;3.13;;
14094;SDS011;18096;48.142;16.290;2023-06-22T06:18:22;9.07;;;3.60;;
14094;SDS011;18096;48.142;16.290;2023-06-22T06:20:48;11.07;;;4.00;;
14094;SDS011;18096;48.142;16.290;2023-06-22T06:23:13;10.23;;;3.57;;
14094;SDS011;18096;48.142;16.290;2023-06-22T06:25:39;12.95;;;4.38;;
14094;SDS011;18096;48.142;16.290;2023-06-22T06:28:05;13.43;;;4.50;;
14094;SDS011;18096;48.142;16.290;2023-06-22T06:30:31;11.82;;;6.35;;
14094;SDS011;18096;48.142;16.290;2023-06-22T06:32:57;14.90;;;5.17;;
14094;SDS011;18096;48.142;16.290;2023-06-22T06:35:22;15.77;;;5.18;;
14094;SDS011;18096;48.142;16.290;2023-06-22T06:37:49;13.70;;;5.90;;
14094;SDS011;18096;48.142;16.290;2023-06-22T06:40:16;9.90;;;4.30;;
14094;SDS011;18096;48.142;16.290;2023-06-22T06:42:43;17.50;;;6.00;;
14094;SDS011;18096;48.142;16.290;2023-06-22T06:45:11;16.23;;;5.57;;
14094;SDS011;18096;48.142;16.290;2023-06-22T06:47:38;17.23;;;5.03;;
14094;SDS011;18096;48.142;16.290;2023-06-22T06:50:04;9.13;;;4.40;;
14094;SDS011;18096;48.142;16.290;2023-06-22T06:52:30;12.63;;;5.20;;
14094;SDS011;18096;48.142;16.290;2023-06-22T06:54:56;17.47;;;5.50;;
14094;SDS011;18096;48.142;16.290;2023-06-22T06:57:21;10.57;;;4.43;;
14094;SDS011;18096;48.142;16.290;2023-06-22T06:59:47;11.05;;;4.95;;
14094;SDS011;18096;48.142;16.290;2023-06-22T07:02:14;11.52;;;5.00;;
14094;SDS011;18096;48.142;16.290;2023-06-22T07:04:40;13.33;;;5.30;;
14094;SDS011;18096;48.142;16.290;2023-06-22T07:07:06;22.05;;;5.20;;
14094;SDS011;18096;48.142;16.290;2023-06-22T07:09:32;9.50;;;4.20;;
14094;SDS011;18096;48.142;16.290;2023-06-22T07:11:57;15.07;;;5.45;;
14094;SDS011;18096;48.142;16.290;2023-06-22T07:14:23;10.90;;;3.80;;
14094;SDS011;18096;48.142;16.290;2023-06-22T07:16:49;9.10;;;4.20;;
14094;SDS011;18096;48.142;16.290;2023-06-22T07:19:15;9.13;;;4.40;;
14094;SDS011;18096;48.142;16.290;2023-06-22T07:21:40;14.60;;;5.00;;
14094;SDS011;18096;48.142;16.290;2023-06-22T07:24:06;15.73;;;5.28;;
14094;SDS011;18096;48.142;16.290;2023-06-22T07:26:32;16.50;;;5.67;;
14094;SDS011;18096;48.142;16.290;2023-06-22T07:28:58;18.83;;;5.43;;
14094;SDS011;18096;48.142;16.290;2023-06-22T07:31:24;11.00;;;5.05;;
14094;SDS011;18096;48.142;16.290;2023-06-22T07:33:50;11.38;;;4.72;;
14094;SDS011;18096;48.142;16.290;2023-06-22T07:36:16;17.73;;;4.95;;
14094;SDS011;18096;48.142;16.290;2023-06-22T07:38:43;13.45;;;4.75;;
14094;SDS011;18096;48.142;16.290;2023-06-22T07:41:09;14.97;;;4.20;;
14094;SDS011;18096;48.142;16.290;2023-06-22T07:43:34;13.38;;;5.20;;
14094;SDS011;18096;48.142;16.290;2023-06-22T07:46:02;11.85;;;5.20;;
14094;SDS011;18096;48.142;16.290;2023-06-22T07:48:28;10.57;;;4.43;;
14094;SDS011;18096;48.142;16.290;2023-06-22T07:50:54;18.27;;;6.40;;
14094;SDS011;18096;48.142;16.290;2023-06-22T07:53:20;14.87;;;5.83;;
14094;SDS011;18096;48.142;16.290;2023-06-22T07:55:47;10.23;;;5.65;;
14094;SDS011;18096;48.142;16.290;2023-06-22T07:58:12;10.10;;;6.38;;
14094;SDS011;18096;48.142;16.290;2023-06-22T08:00:38;11.05;;;5.65;;
14094;SDS011;18096;48.142;16.290;2023-06-22T08:03:04;16.05;;;6.72;;
14094;SDS011;18096;48.142;16.290;2023-06-22T08:05:30;17.37;;;6.37;;
14094;SDS011;18096;48.142;16.290;2023-06-22T08:07:56;12.45;;;6.10;;
14094;SDS011;18096;48.142;16.290;2023-06-22T08:10:22;9.82;;;5.82;;
14094;SDS011;18096;48.142;16.290;2023-06-22T08:12:47;12.23;;;6.43;;
14094;SDS011;18096;48.142;16.290;2023-06-22T08:15:13;16.35;;;7.95;;
14094;SDS011;18096;48.142;16.290;2023-06-22T08:17:39;20.15;;;6.93;;
14094;SDS011;18096;48.142;16.290;2023-06-22T08:20:05;14.55;;;7.25;;
14094;SDS011;18096;48.142;16.290;2023-06-22T08:22:34;21.33;;;6.78;;
14094;SDS011;18096;48.142;16.290;2023-06-22T08:25:01;18.05;;;7.78;;
14094;SDS011;18096;48.142;16.290;2023-06-22T08:27:29;13.73;;;6.72;;
14094;SDS011;18096;48.142;16.290;2023-06-22T08:29:57;14.25;;;8.02;;
14094;SDS011;18096;48.142;16.290;2023-06-22T08:32:24;14.90;;;6.60;;
14094;SDS011;18096;48.142;16.290;2023-06-22T08:34:51;20.00;;;7.68;;
14094;SDS011;18096;48.142;16.290;2023-06-22T08:37:18;12.73;;;6.63;;
14094;SDS011;18096;48.142;16.290;2023-06-22T08:39:44;12.18;;;7.50;;
14094;SDS011;18096;48.142;16.290;2023-06-22T08:42:09;16.00;;;6.63;;
14094;SDS011;18096;48.142;16.290;2023-06-22T08:44:35;19.67;;;7.63;;
14094;SDS011;18096;48.142;16.290;2023-06-22T08:47:00;30.90;;;7.90;;
14094;SDS011;18096;48.142;16.290;2023-06-22T08:49:27;15.48;;;9.40;;
14094;SDS011;18096;48.142;16.290;2023-06-22T08:51:52;12.63;;;6.97;;
14094;SDS011;18096;48.142;16.290;2023-06-22T08:54:21;10.82;;;7.50;;
14094;SDS011;18096;48.142;16.290;2023-06-22T08:56:46;13.55;;;6.72;;
14094;SDS011;18096;48.142;16.290;2023-06-22T08:59:12;21.88;;;6.47;;
14094;SDS011;18096;48.142;16.290;2023-06-22T09:01:37;16.10;;;7.70;;
14094;SDS011;18096;48.142;16.290;2023-06-22T09:04:03;13.98;;;7.00;;
14094;SDS011;18096;48.142;16.290;2023-06-22T09:06:31;18.98;;;7.57;;
14094;SDS011;18096;48.142;16.290;2023-06-22T09:08:57;18.30;;;7.10;;
14094;SDS011;18096;48.142;16.290;2023-06-22T09:11:24;12.60;;;6.00;;
14094;SDS011;18096;48.142;16.290;2023-06-22T09:13:50;9.23;;;5.10;;
14094;SDS011;18096;48.142;16.290;2023-06-22T09:16:17;14.45;;;5.40;;
14094;SDS011;18096;48.142;16.290;2023-06-22T09:18:42;9.82;;;4.97;;
14094;SDS011;18096;48.142;16.290;2023-06-22T09:21:11;12.00;;;5.07;;
14094;SDS011;18096;48.142;16.290;2023-06-22T09:23:37;19.23;;;5.40;;
14094;SDS011;18096;48.142;16.290;2023-06-22T09:26:03;16.75;;;5.03;;
14094;SDS011;18096;48.142;16.290;2023-06-22T09:28:29;10.57;;;5.63;;
14094;SDS011;18096;48.142;16.290;2023-06-22T09:30:54;8.70;;;4.50;;
14094;SDS011;18096;48.142;16.290;2023-06-22T09:33:23;8.13;;;5.10;;
14094;SDS011;18096;48.142;16.290;2023-06-22T09:35:49;7.53;;;4.30;;
14094;SDS011;18096;48.142;16.290;2023-06-22T09:38:16;6.97;;;4.18;;
14094;SDS011;18096;48.142;16.290;2023-06-22T09:40:42;8.00;;;4.20;;
14094;SDS011;18096;48.142;16.290;2023-06-22T09:43:08;10.73;;;4.57;;
14094;SDS011;18096;48.142;16.290;2023-06-22T09:45:33;8.60;;;5.10;;
14094;SDS011;18096;48.142;16.290;2023-06-22T09:47:59;8.18;;;4.30;;
14094;SDS011;18096;48.142;16.290;2023-06-22T09:50:25;8.30;;;4.05;;
14094;SDS011;18096;48.142;16.290;2023-06-22T09:52:50;6.00;;;3.90;;
14094;SDS011;18096;48.142;16.290;2023-06-22T09:55:20;6.15;;;3.60;;
14094;SDS011;18096;48.142;16.290;2023-06-22T09:57:46;8.35;;;3.75;;
14094;SDS011;18096;48.142;16.290;2023-06-22T10:00:11;7.67;;;4.37;;
14094;SDS011;18096;48.142;16.290;2023-06-22T10:02:39;8.95;;;4.13;;
14094;SDS011;18096;48.142;16.290;2023-06-22T10:05:05;12.50;;;4.85;;
14094;SDS011;18096;48.142;16.290;2023-06-22T10:07:32;17.70;;;5.13;;
14094;SDS011;18096;48.142;16.290;2023-06-22T10:09:58;10.68;;;3.85;;
14094;SDS011;18096;48.142;16.290;2023-06-22T10:12:24;8.73;;;4.13;;
14094;SDS011;18096;48.142;16.290;2023-06-22T10:14:50;9.85;;;4.25;;
14094;SDS011;18096;48.142;16.290;2023-06-22T10:17:16;10.50;;;4.40;;
14094;SDS011;18096;48.142;16.290;2023-06-22T10:19:41;7.90;;;4.25;;
14094;SDS011;18096;48.142;16.290;2023-06-22T10:22:07;8.05;;;4.40;;
14094;SDS011;18096;48.142;16.290;2023-06-22T10:24:33;6.27;;;3.80;;
14094;SDS011;18096;48.142;16.290;2023-06-22T10:26:58;7.77;;;4.30;;
14094;SDS011;18096;48.142;16.290;2023-06-22T10:29:24;5.30;;;3.00;;
14094;SDS011;18096;48.142;16.290;2023-06-22T10:31:49;6.60;;;3.33;;
14094;SDS011;18096;48.142;16.290;2023-06-22T10:34:15;9.87;;;3.70;;
14094;SDS011;18096;48.142;16.290;2023-06-22T10:36:41;6.87;;;2.97;;
14094;SDS011;18096;48.142;16.290;2023-06-22T10:39:06;5.22;;;2.70;;
14094;SDS011;18096;48.142;16.290;2023-06-22T10:41:32;4.47;;;2.77;;
14094;SDS011;18096;48.142;16.290;2023-06-22T10:43:58;8.70;;;3.40;;
14094;SDS011;18096;48.142;16.290;2023-06-22T10:46:24;7.68;;;3.35;;
14094;SDS011;18096;48.142;16.290;2023-06-22T10:48:50;9.18;;;3.80;;
14094;SDS011;18096;48.142;16.290;2023-06-22T10:51:19;8.30;;;3.20;;
14094;SDS011;18096;48.142;16.290;2023-06-22T10:53:44;10.30;;;3.40;;
14094;SDS011;18096;48.142;16.290;2023-06-22T10:56:10;5.87;;;3.37;;
14094;SDS011;18096;48.142;16.290;2023-06-22T10:58:36;7.43;;;3.30;;
14094;SDS011;18096;48.142;16.290;2023-06-22T11:01:01;5.27;;;3.50;;
14094;SDS011;18096;48.142;16.290;2023-06-22T11:03:28;8.63;;;3.50;;
14094;SDS011;18096;48.142;16.290;2023-06-22T11:05:53;5.83;;;3.40;;
14094;SDS011;18096;48.142;16.290;2023-06-22T11:08:19;9.97;;;3.60;;
14094;SDS011;18096;48.142;16.290;2023-06-22T11:10:45;4.45;;;3.00;;
14094;SDS011;18096;48.142;16.290;2023-06-22T11:13:10;8.03;;;3.30;;
14094;SDS011;18096;48.142;16.290;2023-06-22T11:15:36;11.87;;;3.60;;
14094;SDS011;18096;48.142;16.290;2023-06-22T11:18:03;4.70;;;3.38;;
14094;SDS011;18096;48.142;16.290;2023-06-22T11:20:30;11.63;;;3.70;;
14094;SDS011;18096;48.142;16.290;2023-06-22T11:22:56;11.63;;;3.40;;
14094;SDS011;18096;48.142;16.290;2023-06-22T11:25:22;5.40;;;3.00;;
14094;SDS011;18096;48.142;16.290;2023-06-22T11:27:47;5.93;;;3.13;;
14094;SDS011;18096;48.142;16.290;2023-06-22T11:30:13;5.28;;;3.42;;
14094;SDS011;18096;48.142;16.290;2023-06-22T11:32:38;16.60;;;3.60;;
14094;SDS011;18096;48.142;16.290;2023-06-22T11:35:04;13.00;;;3.53;;
14094;SDS011;18096;48.142;16.290;2023-06-22T11:37:30;10.45;;;6.10;;
14094;SDS011;18096;48.142;16.290;2023-06-22T11:39:55;38.20;;;15.73;;
14094;SDS011;18096;48.142;16.290;2023-06-22T11:42:21;12.27;;;4.63;;
14094;SDS011;18096;48.142;16.290;2023-06-22T11:44:48;6.93;;;5.60;;
14094;SDS011;18096;48.142;16.290;2023-06-22T11:47:14;11.43;;;3.47;;
14094;SDS011;18096;48.142;16.290;2023-06-22T11:49:40;7.90;;;2.90;;
14094;SDS011;18096;48.142;16.290;2023-06-22T11:52:06;17.13;;;3.85;;
14094;SDS011;18096;48.142;16.290;2023-06-22T11:54:32;9.37;;;3.80;;
14094;SDS011;18096;48.142;16.290;2023-06-22T11:56:58;10.57;;;3.90;;
14094;SDS011;18096;48.142;16.290;2023-06-22T11:59:24;7.57;;;3.42;;
14094;SDS011;18096;48.142;16.290;2023-06-22T12:01:49;8.98;;;3.78;;
14094;SDS011;18096;48.142;16.290;2023-06-22T12:04:16;7.95;;;4.28;;
14094;SDS011;18096;48.142;16.290;2023-06-22T12:06:43;10.32;;;3.90;;
14094;SDS011;18096;48.142;16.290;2023-06-22T12:09:09;10.33;;;3.07;;
14094;SDS011;18096;48.142;16.290;2023-06-22T12:11:35;7.18;;;4.00;;
14094;SDS011;18096;48.142;16.290;2023-06-22T12:14:00;7.68;;;3.70;;
14094;SDS011;18096;48.142;16.290;2023-06-22T12:16:30;12.70;;;4.07;;
14094;SDS011;18096;48.142;16.290;2023-06-22T12:18:56;7.90;;;3.30;;
14094;SDS011;18096;48.142;16.290;2023-06-22T12:21:21;5.75;;;3.50;;
14094;SDS011;18096;48.142;16.290;2023-06-22T12:23:47;6.68;;;3.60;;
14094;SDS011;18096;48.142;16.290;2023-06-22T12:26:13;5.37;;;3.33;;
14094;SDS011;18096;48.142;16.290;2023-06-22T12:28:38;9.88;;;3.65;;
14094;SDS011;18096;48.142;16.290;2023-06-22T12:31:04;8.63;;;3.45;;
14094;SDS011;18096;48.142;16.290;2023-06-22T12:33:30;8.27;;;3.33;;
14094;SDS011;18096;48.142;16.290;2023-06-22T12:35:56;6.70;;;3.80;;
14094;SDS011;18096;48.142;16.290;2023-06-22T12:38:21;7.97;;;3.20;;
14094;SDS011;18096;48.142;16.290;2023-06-22T12:40:47;7.17;;;3.80;;
14094;SDS011;18096;48.142;16.290;2023-06-22T12:43:14;9.27;;;3.92;;
14094;SDS011;18096;48.142;16.290;2023-06-22T12:45:40;13.17;;;3.20;;
14094;SDS011;18096;48.142;16.290;2023-06-22T12:48:06;6.00;;;3.03;;
14094;SDS011;18096;48.142;16.290;2023-06-22T12:50:31;9.05;;;3.60;;
14094;SDS011;18096;48.142;16.290;2023-06-22T12:52:57;8.10;;;3.60;;
14094;SDS011;18096;48.142;16.290;2023-06-22T12:55:23;4.17;;;3.00;;
14094;SDS011;18096;48.142;16.290;2023-06-22T12:57:48;11.18;;;3.97;;
14094;SDS011;18096;48.142;16.290;2023-06-22T13:00:14;10.50;;;4.27;;
14094;SDS011;18096;48.142;16.290;2023-06-22T13:02:40;9.88;;;3.78;;
14094;SDS011;18096;48.142;16.290;2023-06-22T13:05:06;13.95;;;4.40;;
14094;SDS011;18096;48.142;16.290;2023-06-22T13:07:31;9.80;;;3.90;;
14094;SDS011;18096;48.142;16.290;2023-06-22T13:09:57;12.85;;;4.80;;
14094;SDS011;18096;48.142;16.290;2023-06-22T13:12:23;9.55;;;4.13;;
14094;SDS011;18096;48.142;16.290;2023-06-22T13:14:48;8.60;;;4.03;;
14094;SDS011;18096;48.142;16.290;2023-06-22T13:17:14;9.38;;;4.38;;
14094;SDS011;18096;48.142;16.290;2023-06-22T13:19:40;12.05;;;4.30;;
14094;SDS011;18096;48.142;16.290;2023-06-22T13:22:09;10.43;;;4.18;;
14094;SDS011;18096;48.142;16.290;2023-06-22T13:24:50;9.63;;;4.07;;
14094;SDS011;18096;48.142;16.290;2023-06-22T13:27:16;7.95;;;4.28;;
14094;SDS011;18096;48.142;16.290;2023-06-22T13:29:42;6.63;;;4.10;;
14094;SDS011;18096;48.142;16.290;2023-06-22T13:32:07;11.00;;;4.17;;
14094;SDS011;18096;48.142;16.290;2023-06-22T13:34:33;7.45;;;4.10;;
14094;SDS011;18096;48.142;16.290;2023-06-22T13:36:58;12.73;;;5.70;;
14094;SDS011;18096;48.142;16.290;2023-06-22T13:39:24;10.80;;;4.50;;
14094;SDS011;18096;48.142;16.290;2023-06-22T13:41:50;7.30;;;4.20;;
14094;SDS011;18096;48.142;16.290;2023-06-22T13:44:15;8.00;;;3.90;;
14094;SDS011;18096;48.142;16.290;2023-06-22T13:46:41;11.00;;;4.18;;
14094;SDS011;18096;48.142;16.290;2023-06-22T13:49:06;12.70;;;5.07;;
14094;SDS011;18096;48.142;16.290;2023-06-22T13:51:32;10.27;;;4.87;;
14094;SDS011;18096;48.142;16.290;2023-06-22T13:53:58;10.10;;;4.50;;
14094;SDS011;18096;48.142;16.290;2023-06-22T13:56:23;8.10;;;3.60;;
14094;SDS011;18096;48.142;16.290;2023-06-22T13:58:49;11.77;;;4.82;;
14094;SDS011;18096;48.142;16.290;2023-06-22T14:01:14;12.25;;;4.68;;
14094;SDS011;18096;48.142;16.290;2023-06-22T14:03:40;8.88;;;4.80;;
14094;SDS011;18096;48.142;16.290;2023-06-22T14:06:06;10.80;;;4.60;;
14094;SDS011;18096;48.142;16.290;2023-06-22T14:08:31;9.07;;;4.40;;
14094;SDS011;18096;48.142;16.290;2023-06-22T14:10:57;16.43;;;4.30;;
14094;SDS011;18096;48.142;16.290;2023-06-22T14:13:22;13.48;;;5.60;;
14094;SDS011;18096;48.142;16.290;2023-06-22T14:15:48;9.82;;;4.70;;
14094;SDS011;18096;48.142;16.290;2023-06-22T14:18:14;9.30;;;4.40;;
14094;SDS011;18096;48.142;16.290;2023-06-22T14:20:40;5.05;;;4.18;;
14094;SDS011;18096;48.142;16.290;2023-06-22T14:23:05;14.40;;;5.50;;
14094;SDS011;18096;48.142;16.290;2023-06-22T14:25:31;9.70;;;4.60;;
14094;SDS011;18096;48.142;16.290;2023-06-22T14:27:57;10.40;;;4.00;;
14094;SDS011;18096;48.142;16.290;2023-06-22T14:30:22;13.70;;;5.90;;
14094;SDS011;18096;48.142;16.290;2023-06-22T14:32:48;12.10;;;5.40;;
14094;SDS011;18096;48.142;16.290;2023-06-22T14:35:13;13.30;;;4.40;;